createdAt,value
2024-05-09T00:03:47.952Z,102053.04
2024-05-09T00:09:11.490Z,102051.09
2024-05-09T00:14:33.837Z,102056.47
2024-05-09T00:19:56.367Z,102057.70
2024-05-09T00:25:19.802Z,102060.67
2024-05-09T00:30:51.935Z,102065.03
2024-05-09T00:36:16.243Z,102059.14
2024-05-09T00:41:56.887Z,102056.48
2024-05-09T00:47:24.229Z,102051.80
2024-05-09T00:58:35.036Z,102049.92
2024-05-09T01:04:13.762Z,102047.74
2024-05-09T01:09:36.787Z,102041.80
2024-05-09T01:15:06.400Z,102050.66
2024-05-09T01:20:39.205Z,102047.88
2024-05-09T01:31:28.301Z,102036.94
2024-05-09T01:36:50.771Z,102054.08
2024-05-09T01:42:13.263Z,102051.76
2024-05-09T01:47:35.745Z,102053.36
2024-05-09T01:53:06.558Z,102058.72
2024-05-09T01:58:30.122Z,102058.82
2024-05-09T02:03:53.661Z,102064.00
2024-05-09T02:09:16.220Z,102060.36
2024-05-09T02:14:39.001Z,102055.09
2024-05-09T02:20:01.764Z,102061.30
2024-05-09T02:25:27.294Z,102058.62
2024-05-09T02:30:49.620Z,102050.95
2024-05-09T02:36:26.972Z,102054.72
2024-05-09T02:42:05.699Z,102056.50
2024-05-09T02:47:54.224Z,102060.17
2024-05-09T02:53:19.599Z,102064.72
2024-05-09T03:04:20.882Z,102066.92
2024-05-09T03:09:43.279Z,102060.14
2024-05-09T03:15:07.647Z,102067.16
2024-05-09T03:20:34.369Z,102060.78
2024-05-09T03:25:54.731Z,102058.13
2024-05-09T03:31:18.490Z,102058.67
2024-05-09T03:36:41.287Z,102050.55
2024-05-09T03:42:04.117Z,102049.55
2024-05-09T03:47:26.863Z,102059.30
2024-05-09T03:52:50.026Z,102050.45
2024-05-09T03:58:14.683Z,102056.65
2024-05-09T04:09:47.012Z,102059.64
2024-05-09T04:15:17.582Z,102060.84
2024-05-09T04:20:41.456Z,102064.61
2024-05-09T04:26:04.990Z,102069.46
2024-05-09T04:31:30.557Z,102064.56
2024-05-09T04:36:53.126Z,102069.17
2024-05-09T04:42:21.014Z,102065.94
2024-05-09T04:47:45.238Z,102067.88
2024-05-09T04:53:12.435Z,102061.89
2024-05-09T04:58:49.591Z,102062.72
2024-05-09T05:04:11.392Z,102080.28
2024-05-09T05:09:33.778Z,102072.20
2024-05-09T05:14:56.078Z,102074.03
2024-05-09T05:20:27.321Z,102074.80
2024-05-09T05:25:43.015Z,102073.05
2024-05-09T05:31:05.886Z,102066.97
2024-05-09T05:36:28.659Z,102074.41
2024-05-09T05:41:51.055Z,102073.51
2024-05-09T05:47:13.667Z,102071.46
2024-05-09T05:52:36.091Z,102078.70
2024-05-09T05:57:58.581Z,102069.92
2024-05-09T06:03:21.580Z,102072.56
2024-05-09T06:08:44.774Z,102078.82
2024-05-09T06:14:07.594Z,102068.50
2024-05-09T06:19:31.388Z,102077.92
2024-05-09T06:24:54.009Z,102063.63
2024-05-09T06:30:25.769Z,102056.23
2024-05-09T06:35:41.230Z,102057.05
2024-05-09T06:41:04.551Z,102041.59
2024-05-09T06:46:27.133Z,102038.88
2024-05-09T06:51:52.398Z,102032.47
2024-05-09T06:57:15.771Z,102029.67
2024-05-09T07:02:38.421Z,102022.98
2024-05-09T07:08:01.305Z,102021.30
2024-05-09T07:13:26.041Z,102013.20
2024-05-09T07:18:50.242Z,102007.95
2024-05-09T07:24:12.724Z,101994.50
2024-05-09T07:29:38.381Z,102004.91
2024-05-09T07:34:59.890Z,101997.02
2024-05-09T07:40:32.248Z,101991.22
2024-05-09T07:45:52.784Z,101992.74
2024-05-09T07:56:37.135Z,101989.01
2024-05-09T08:02:00.157Z,101978.52
2024-05-09T08:07:23.172Z,101978.89
2024-05-09T08:12:45.601Z,101974.24
2024-05-09T08:18:09.178Z,101963.11
2024-05-09T08:23:32.647Z,101980.70
2024-05-09T08:28:55.018Z,101980.30
2024-05-09T08:34:17.540Z,101975.30
2024-05-09T08:39:40.429Z,101988.07
2024-05-09T08:45:04.393Z,101984.51
2024-05-09T08:50:36.557Z,101979.97
2024-05-09T08:55:53.714Z,101975.75
2024-05-09T09:01:20.000Z,101972.72
2024-05-09T09:06:45.462Z,101965.95
2024-05-09T09:12:10.181Z,101962.65
2024-05-09T09:17:36.064Z,101961.38
2024-05-09T09:22:59.103Z,101956.59
2024-05-09T09:28:22.330Z,101950.41
2024-05-09T09:33:51.365Z,101961.02
2024-05-09T09:39:16.079Z,101966.61
2024-05-09T09:44:42.179Z,101970.59
2024-05-09T09:50:09.534Z,101961.47
2024-05-09T09:55:30.452Z,101966.03
2024-05-09T10:00:53.103Z,101951.16
2024-05-09T10:06:17.136Z,101952.94
2024-05-09T10:11:49.023Z,101948.31
2024-05-09T10:17:11.628Z,101941.73
2024-05-09T10:22:42.104Z,101941.48
2024-05-09T10:28:09.115Z,101934.69
2024-05-09T10:33:32.867Z,101931.82
2024-05-09T10:38:56.626Z,101927.61
2024-05-09T10:44:26.378Z,101926.08
2024-05-09T10:49:51.150Z,101912.80
2024-05-09T10:55:14.533Z,101913.20
2024-05-09T11:00:38.867Z,101914.76
2024-05-09T11:06:04.806Z,101912.83
2024-05-09T11:11:28.914Z,101908.47
2024-05-09T11:16:51.792Z,101900.78
2024-05-09T11:22:14.782Z,101898.31
2024-05-09T11:27:54.887Z,101884.87
2024-05-09T11:33:22.841Z,101880.87
2024-05-09T11:38:47.063Z,101873.97
2024-05-09T11:44:09.951Z,101878.03
2024-05-09T11:49:32.991Z,101873.38
2024-05-09T11:54:55.978Z,101859.59
2024-05-09T12:00:29.068Z,101847.16
2024-05-09T12:05:45.000Z,101837.69
2024-05-09T12:11:08.710Z,101840.19
2024-05-09T12:16:31.944Z,101835.53
2024-05-09T12:21:55.189Z,101824.36
2024-05-09T12:27:18.074Z,101830.48
2024-05-09T12:32:41.198Z,101816.69
2024-05-09T12:38:05.522Z,101805.92
2024-05-09T12:43:28.404Z,101810.15
2024-05-09T12:48:52.355Z,101805.52
2024-05-09T12:54:15.454Z,101793.85
2024-05-09T12:59:38.509Z,101791.48
2024-05-09T13:05:01.653Z,101786.09
2024-05-09T13:10:31.984Z,101777.78
2024-05-09T13:15:52.268Z,101768.51
2024-05-09T13:21:14.744Z,101757.14
2024-05-09T13:26:37.685Z,101766.54
2024-05-09T13:32:00.291Z,101751.11
2024-05-09T13:37:22.779Z,101742.75
2024-05-09T13:42:48.676Z,101731.48
2024-05-09T13:48:10.544Z,101727.38
2024-05-09T13:53:33.631Z,101726.24
2024-05-09T13:58:56.175Z,101726.36
2024-05-09T14:04:22.055Z,101711.04
2024-05-09T14:09:44.801Z,101714.71
2024-05-09T14:15:07.152Z,101709.70
2024-05-09T14:20:31.952Z,101692.30
2024-05-09T14:25:53.978Z,101694.47
2024-05-09T14:31:16.713Z,101685.07
2024-05-09T14:36:39.814Z,101674.95
2024-05-09T14:42:09.782Z,101670.89
2024-05-09T14:47:33.116Z,101667.55
2024-05-09T14:52:55.710Z,101654.56
2024-05-09T14:58:21.235Z,101648.99
2024-05-09T15:03:44.923Z,101642.26
2024-05-09T15:09:14.832Z,101638.28
2024-05-09T15:14:37.784Z,101629.95
2024-05-09T15:20:01.497Z,101624.66
2024-05-09T15:25:24.147Z,101611.16
2024-05-09T15:30:47.960Z,101608.88
2024-05-09T15:36:10.861Z,101604.52
2024-05-09T15:41:33.243Z,101605.70
2024-05-09T15:46:56.351Z,101595.67
2024-05-09T15:52:19.023Z,101591.30
2024-05-09T15:57:41.422Z,101587.16
2024-05-09T16:03:03.831Z,101581.02
2024-05-09T16:08:26.744Z,101583.56
2024-05-09T16:13:51.977Z,101575.70
2024-05-09T16:19:14.435Z,101578.31
2024-05-09T16:24:38.243Z,101572.33
2024-05-09T16:30:04.112Z,101568.87
2024-05-09T16:35:26.533Z,101569.59
2024-05-09T16:40:49.265Z,101570.09
2024-05-09T16:46:12.071Z,101563.42
2024-05-09T16:51:34.704Z,101564.08
2024-05-09T16:56:58.105Z,101567.00
2024-05-09T17:02:21.087Z,101558.29
2024-05-09T17:07:44.398Z,101562.58
2024-05-09T17:13:08.057Z,101561.34
2024-05-09T17:18:31.967Z,101555.23
2024-05-09T17:23:55.833Z,101550.11
2024-05-09T17:29:18.283Z,101543.44
2024-05-09T17:34:40.667Z,101538.70
2024-05-09T17:40:06.662Z,101548.17
2024-05-09T17:45:27.013Z,101540.25
2024-05-09T17:50:51.091Z,101543.66
2024-05-09T17:56:14.326Z,101543.53
2024-05-09T18:01:37.430Z,101535.05
2024-05-09T18:07:00.742Z,101542.03
2024-05-09T18:12:23.897Z,101543.58
2024-05-09T18:17:47.787Z,101546.12
2024-05-09T18:23:10.476Z,101542.59
2024-05-09T18:28:33.495Z,101540.16
2024-05-09T18:33:56.010Z,101542.45
2024-05-09T18:39:18.944Z,101537.89
2024-05-09T18:44:41.367Z,101545.92
2024-05-09T18:50:05.928Z,101545.95
2024-05-09T18:55:27.857Z,101549.61
2024-05-09T19:00:53.330Z,101557.39
2024-05-09T19:06:15.080Z,101555.69
2024-05-09T19:11:39.886Z,101555.31
2024-05-09T19:17:02.356Z,101560.91
2024-05-09T19:22:25.312Z,101564.34
2024-05-09T19:27:48.555Z,101569.59
2024-05-09T19:33:12.977Z,101572.49
2024-05-09T19:38:35.925Z,101573.56
2024-05-09T19:43:58.402Z,101576.83
2024-05-09T19:49:21.260Z,101577.20
2024-05-09T19:54:45.809Z,101581.72
2024-05-09T20:00:12.064Z,101580.73
2024-05-09T20:05:33.292Z,101577.46
2024-05-09T20:10:55.918Z,101579.23
2024-05-09T20:16:19.407Z,101582.41
2024-05-09T20:21:41.957Z,101575.70
2024-05-09T20:27:04.541Z,101585.17
2024-05-09T20:32:26.979Z,101573.63
2024-05-09T20:37:49.325Z,101574.00
2024-05-09T20:43:12.176Z,101569.05
2024-05-09T20:48:34.826Z,101574.52
2024-05-09T20:53:57.233Z,101570.31
2024-05-09T20:59:19.595Z,101573.25
2024-05-09T21:04:42.142Z,101574.21
2024-05-09T21:10:10.160Z,101575.64
2024-05-09T21:15:28.552Z,101576.36
2024-05-09T21:20:50.872Z,101590.22
2024-05-09T21:26:14.776Z,101599.94
2024-05-09T21:31:37.949Z,101593.64
2024-05-09T21:37:00.462Z,101577.12
2024-05-09T21:42:22.895Z,101573.23
2024-05-09T21:47:47.148Z,101571.88
2024-05-09T21:53:09.726Z,101575.35
2024-05-09T21:58:32.593Z,101578.56
2024-05-09T22:03:56.253Z,101582.48
2024-05-09T22:09:18.880Z,101573.33
2024-05-09T22:14:41.171Z,101567.95
2024-05-09T22:20:11.718Z,101577.59
2024-05-09T22:25:30.898Z,101572.27
2024-05-09T22:30:54.600Z,101566.41
2024-05-09T22:36:18.576Z,101570.39
2024-05-09T22:41:41.173Z,101563.28
2024-05-09T22:47:03.507Z,101573.30
2024-05-09T22:52:25.828Z,101582.14
2024-05-09T22:57:49.116Z,101580.53
2024-05-09T23:03:15.710Z,101581.01
2024-05-09T23:08:38.547Z,101584.70
2024-05-09T23:14:01.316Z,101576.31
2024-05-09T23:19:23.904Z,101570.16
2024-05-09T23:24:47.465Z,101571.09
2024-05-09T23:30:12.520Z,101568.80
2024-05-09T23:35:34.322Z,101558.58
2024-05-09T23:40:57.039Z,101563.48
2024-05-09T23:46:19.527Z,101567.95
2024-05-09T23:51:41.920Z,101559.45
2024-05-09T23:57:04.294Z,101556.42
